Home > Products > Valid Products > TAF

000
FTUS45 KPUB 231132
TAFALS
TAF
KALS 231132Z 2312/2412 21010KT P6SM SCT070 SCT150
     FM231600 22012G22KT P6SM SCT070 BKN120
     FM231800 23020G30KT P6SM SCT070 BKN120
     FM240200 25012KT P6SM SCT120
     FM240400 32010KT P6SM FEW150
     FM240700 VRB05KT P6SM FEW150=



000
FTUS45 KPUB 231132
TAFPUB
TAF
KPUB 231132Z 2312/2412 11006KT P6SM FEW100 SCT150
      TEMPO 2313/2315 21010KT
     FM231500 22012G22KT P6SM SCT100 BKN200
     FM231800 24018G28KT P6SM SCT100 BKN200
     FM240100 34015G25KT P6SM VCTS SCT060CB BKN100
     FM240500 34014KT P6SM FEW100 SCT150=



000
FTUS45 KPUB 231132
TAFCOS
TAF
KCOS 231132Z 2312/2412 19014KT P6SM FEW080 SCT150
     FM231500 21012G22KT P6SM SCT100 BKN150
     FM231800 23018G28KT P6SM SCT100 BKN150
     FM240000 35015G25KT P6SM VCTS SCT060CB BKN100
     FM240500 33013KT P6SM FEW100 SCT150
     FM240800 31008KT P6SM FEW150=



000
FTUS45 KPUB 230612 AAA
TAFPUB
TAF AMD
KPUB 230612Z 2306/2406 21012KT P6SM SCT100 BKN150
     FM231500 22012G22KT P6SM SCT100 BKN200
     FM231800 24018G28KT P6SM SCT100 BKN200
     FM240100 34015G25KT P6SM BKN100=



000
FTUS45 KPUB 230528
TAFALS
TAF
KALS 230528Z 2306/2406 23012KT P6SM SCT070 BKN120
     FM231500 22012G22KT P6SM SCT070 BKN120
     FM231800 23020G30KT P6SM SCT070 BKN120
     FM240200 25012KT P6SM SCT120=



000
FTUS45 KPUB 230528
TAFCOS
TAF
KCOS 230528Z 2306/2406 17009KT P6SM SCT080 BKN120
     FM231500 19012G22KT P6SM SCT100 BKN150
     FM231800 22018G28KT P6SM SCT100 BKN150
     FM240000 35015G25KT P6SM VCSH BKN100=



000
FTUS45 KPUB 230528
TAFPUB
TAF
KPUB 230528Z 2306/2406 24012KT P6SM SCT100 BKN150
     FM231500 22012G22KT P6SM SCT100 BKN200
     FM231800 24018G28KT P6SM SCT100 BKN200
     FM240100 34015G25KT P6SM BKN100=



000
FTUS45 KPUB 222322
TAFPUB
TAF
KPUB 222322Z 2300/2324 22012G22KT P6SM SCT080 BKN150
     FM230200 24009KT P6SM SCT100 BKN150
     FM231500 22012G22KT P6SM SCT100 BKN200
     FM231800 24018G28KT P6SM SCT100 BKN200=



000
FTUS45 KPUB 222322
TAFCOS
TAF
KCOS 222322Z 2300/2324 19012KT P6SM SCT080 BKN150
     FM230200 17009KT P6SM SCT080 BKN120
     FM231500 19012G22KT P6SM SCT100 BKN150
     FM231800 22018G28KT P6SM SCT100 BKN150=



000
FTUS45 KPUB 222322
TAFALS
TAF
KALS 222322Z 2300/2324 24014G25KT P6SM SCT060 BKN100
     FM230300 20012KT P6SM SCT070 BKN120
     FM231500 22012G22KT P6SM SCT070 BKN120
     FM231800 23020G30KT P6SM SCT070 BKN120=



000
FTUS45 KPUB 222259 AAD
TAFPUB
TAF AMD
KPUB 222259Z 2223/2318 22012KT P6SM VCTS SCT070CB BKN090
     FM230100 VRB06KT P6SM SCT100 BKN150=



000
FTUS45 KPUB 222119 AAC
TAFPUB
TAF AMD
KPUB 222119Z 2221/2318 VRB06KT P6SM VCTS SCT070CB BKN090
      TEMPO 2221/2301 VRB15G30KT 6SM TSRA BKN060CB
     FM230300 VRB06KT P6SM SCT100 BKN150=



000
FTUS45 KPUB 222032 AAB
TAFPUB
TAF AMD
KPUB 222032Z 2221/2318 22015G35KT P6SM VCTS SCT070CB BKN090
     FM230300 VRB06KT P6SM SCT100 BKN150=



000
FTUS45 KPUB 221826 AAA
TAFALS
TAF AMD
KALS 221826Z 2218/2318 22012G25KT P6SM FEW070 SCT090 BKN120
     FM222000 23020G30KT P6SM VCTS SCT060CB BKN100
     FM230100 22015G25KT P6SM BKN070
     FM230400 20010KT P6SM SCT070 BKN120=



000
FTUS45 KPUB 221825 AAA
TAFCOS
TAF AMD
KCOS 221825Z 2218/2318 16012G25KT P6SM FEW080 SCT120 BKN200
     FM222000 22015G25KT P6SM VCTS SCT060CB BKN120
     FM230100 15009KT P6SM SCT080 BKN120=



000
FTUS45 KPUB 221737
TAFCOS
TAF
KCOS 221737Z 2218/2318 18010KT P6SM FEW080 SCT120 BKN200
     FM222000 22015G25KT P6SM VCTS SCT060CB BKN120
     FM230100 15009KT P6SM SCT080 BKN120=



000
FTUS45 KPUB 221737
TAFALS
TAF
KALS 221737Z 2218/2318 19010G20KT P6SM FEW080 BKN150
     FM222000 23020G30KT P6SM VCTS SCT060CB BKN100
     FM230100 22015G25KT P6SM BKN070
     FM230400 20010KT P6SM SCT070 BKN120=



000
FTUS45 KPUB 221737
TAFPUB
TAF
KPUB 221737Z 2218/2318 16008KT P6SM FEW100 SCT140 BKN220
     FM222100 20012G24KT P6SM VCTS SCT080CB BKN120
     FM230300 VRB06KT P6SM SCT100 BKN150=



000
FTUS45 KPUB 221120
TAFCOS
TAF
KCOS 221120Z 2212/2312 15006KT P6SM SCT120 BKN250
     FM221600 18012KT P6SM SCT080 BKN150
     FM222100 22015G25KT P6SM VCTS SCT060CB BKN120
     FM230100 17010KT P6SM SCT080 BKN120=



000
FTUS45 KPUB 221120
TAFPUB
TAF
KPUB 221120Z 2212/2312 VRB06KT P6SM FEW100 BKN250
     FM221600 16008KT P6SM SCT100 BKN200
     FM222100 24012G24KT P6SM VCTS SCT080CB BKN120
     FM230100 22010KT P6SM SCT100 BKN150=



000
FTUS45 KPUB 221120
TAFALS
TAF
KALS 221120Z 2212/2312 20008KT P6SM SCT100 BKN200
     FM221600 20010KT P6SM SCT080 BKN150
     FM222000 23020G30KT P6SM VCTS SCT060CB BKN100
     FM230100 22015G25KT P6SM BKN070
     FM230400 20010KT P6SM SCT070 BKN120=



000
FTUS45 KPUB 220520
TAFPUB
TAF
KPUB 220520Z 2206/2306 08006KT P6SM FEW200
     FM220700 VRB04KT P6SM FEW200
     FM221800 19015KT P6SM SCT090 BKN140
     FM230300 20010KT P6SM SCT130 SCT200=



000
FTUS45 KPUB 220520
TAFALS
TAF
KALS 220520Z 2206/2306 18006KT P6SM FEW200
     FM221500 19013KT P6SM FEW120 SCT200
     FM222100 22020G32KT P6SM VCSH SCT050 BKN120
     FM230400 21014KT P6SM FEW050 SCT120=



000
FTUS45 KPUB 220520
TAFCOS
TAF
KCOS 220520Z 2206/2306 15006KT P6SM FEW200
     FM220700 12006KT P6SM FEW200
     FM221600 18012KT P6SM FEW090 SCT200
     FM222000 20012G25KT P6SM VCSH SCT060 BKN120
     FM230300 17010KT P6SM FEW070 SCT200=



000
FTUS45 KPUB 212320
TAFCOS
TAF
KCOS 212320Z 2200/2224 16010G20KT P6SM VCSH FEW080 SCT120
     FM220200 14006KT P6SM FEW080 SCT200
     FM220600 08006KT P6SM FEW200
     FM221600 18012KT P6SM FEW090 SCT200
     FM222000 20012G25KT P6SM VCSH FEW060 BKN120=



000
FTUS45 KPUB 212320
TAFPUB
TAF
KPUB 212320Z 2200/2224 12010KT P6SM FEW110
     FM220200 09006KT P6SM FEW200
     FM220700 VRB04KT P6SM FEW200
     FM221800 19015KT P6SM SCT080 BKN140=



000
FTUS45 KPUB 212320
TAFALS
TAF
KALS 212320Z 2200/2224 18007KT P6SM VCSH SCT090 SCT200
     FM220200 17006KT P6SM SCT200
     FM221500 19013KT P6SM FEW120 SCT200
     FM222000 22020G32KT P6SM VCSH SCT050 BKN120=



000
FTUS45 KPUB 212117 AAA
TAFALS
TAF AMD
KALS 212117Z 2121/2218 18010KT P6SM SCT070 SCT140
     FM212200 24012G22KT P6SM VCSH SCT060 BKN140
     FM220200 17008KT P6SM FEW080 SCT200=



000
FTUS45 KPUB 212114 AAA
TAFCOS
TAF AMD
KCOS 212114Z 2121/2218 15012G22KT P6SM SCT070 SCT140
     FM212300 18014KT P6SM SCT070 BKN140
     FM220100 14006KT P6SM SCT100 SCT200
     FM220600 03006KT P6SM SCT200
     FM221700 18012KT P6SM SCT090 SCT200=



000
FTUS45 KPUB 211723
TAFALS
TAF
KALS 211723Z 2118/2218 VRB05KT P6SM SCT080 SCT120
     FM211900 20010KT P6SM SCT070 BKN120
     FM212000 24012G22KT P6SM SCT060 BKN100
     FM220200 17008KT P6SM FEW080 SCT200=



000
FTUS45 KPUB 211723
TAFCOS
TAF
KCOS 211723Z 2118/2218 12010KT P6SM SCT090 BKN140
     FM212000 18012KT P6SM SCT070 BKN100
     FM220100 14006KT P6SM SCT100 SCT200
     FM220600 03006KT P6SM SCT200
     FM221700 18012KT P6SM SCT090 SCT200=



000
FTUS45 KPUB 211723
TAFPUB
TAF
KPUB 211723Z 2118/2218 10010KT P6SM BKN100
     FM212000 12010KT P6SM SCT080 BKN120
     FM220300 09006KT P6SM FEW100 SCT200
     FM221700 16008KT P6SM SCT100 SCT200=



000
FTUS45 KPUB 211219 AAA
TAFPUB
TAF AMD
KPUB 211219Z 2112/2212 36015G30KT P6SM SCT100 SCT150
     FM211500 10008KT P6SM FEW080 SCT120
     FM212000 12010KT P6SM SCT080 BKN120
     FM220300 VRB06KT P6SM FEW100 SCT200=



000
FTUS45 KPUB 211128 CCA
TAFPUB
TAF COR
KPUB 211128Z 2112/2212 36012G24KT P6SM SCT100 SCT150
     FM211500 10008KT P6SM FEW080 SCT120
     FM212000 12010KT P6SM SCT080 BKN120
     FM220300 VRB06KT P6SM FEW100 SCT200=



000
FTUS45 KPUB 211120
TAFCOS
TAF
KCOS 211120Z 2112/2212 35015G25KT P6SM SCT060 BKN100
     FM211500 35010KT P6SM FEW080 SCT120
     FM211700 16008KT P6SM FEW070 BKN120
     FM212000 18012KT P6SM SCT070 BKN100
     FM220200 14006KT P6SM FEW100 SCT200=



000
FTUS45 KPUB 211120
TAFALS
TAF
KALS 211120Z 2112/2212 VRB05KT P6SM SCT080 SCT120
     FM211900 20010KT P6SM SCT070 BKN120
     FM212000 24012G22KT P6SM VCSH SCT060 BKN100
     FM220200 17008KT P6SM FEW080 SCT200=



000
FTUS45 KPUB 211120
TAFPUB
TAF
KPUB 211120Z 2112/2212 VRB06KT P6SM BKN100
     FM211300 36012G22KT P6SM SCT100 SCT150
     FM211600 10008KT P6SM FEW080 SCT120
     FM212000 12010KT P6SM SCT080 BKN120
     FM220300 VRB06KT P6SM FEW100 SCT200=



000
FTUS45 KPUB 211031 AAA
TAFCOS
TAF AMD
KCOS 211031Z 2111/2206 35015G25KT P6SM SCT060 BKN100
     FM211500 35010KT P6SM FEW080 SCT120
     FM211700 16009KT P6SM FEW060 BKN100
     FM212000 18013KT P6SM FEW060 BKN100
     FM220300 15006KT P6SM FEW100 SCT200=



000
FTUS45 KPUB 211030 AAA
TAFPUB
TAF AMD
KPUB 211030Z 2111/2206 VRB06KT P6SM BKN100
     FM211200 36012G22KT P6SM SCT100 SCT150
     FM211600 10008KT P6SM FEW080 SCT100
     FM212000 13010KT P6SM SCT080 BKN100
     FM220300 10006KT P6SM FEW100 SCT200=



000
FTUS45 KPUB 210520
TAFPUB
TAF
KPUB 210520Z 2106/2206 03006KT P6SM SCT100 SCT150
     FM210800 33011KT P6SM FEW100 SCT150
     FM211100 01010KT P6SM SCT150
     FM211800 13010KT P6SM FEW060 BKN100
     FM220300 10006KT P6SM FEW100 SCT200=



000
FTUS45 KPUB 210520
TAFCOS
TAF
KCOS 210520Z 2106/2206 35013KT P6SM SCT090 SCT200
     FM211400 35009KT P6SM FEW090 SCT200
     FM211700 16009KT P6SM FEW060 BKN100
     FM212000 18013KT P6SM FEW060 BKN100
     FM220300 15006KT P6SM FEW100 SCT200=



000
FTUS45 KPUB 210520
TAFALS
TAF
KALS 210520Z 2106/2206 VRB04KT P6SM SCT090 SCT150
     FM211900 20012KT P6SM VCSH SCT060 BKN120
     FM220200 17007KT P6SM FEW090 SCT200=



000
FTUS45 KPUB 202320
TAFPUB
TAF
KPUB 202320Z 2100/2124 35008KT P6SM VCSH SCT070 BKN100
     FM210200 03006KT P6SM FEW070 SCT150
     FM210600 33011KT P6SM FEW100 SCT150
     FM211100 01010KT P6SM SCT150
     FM211800 13010KT P6SM FEW060 BKN100=



000
FTUS45 KPUB 202320
TAFCOS
TAF
KCOS 202320Z 2100/2124 02012KT P6SM VCSH SCT070 BKN090
     FM210200 35007KT P6SM FEW090 SCT150
     FM210800 35013KT P6SM SCT100 SCT150
     FM211400 35009KT P6SM FEW100 SCT150
     FM211700 16012KT P6SM FEW060 BKN100=



000
FTUS45 KPUB 202320
TAFALS
TAF
KALS 202320Z 2100/2124 31012KT P6SM VCSH SCT080 SCT200
     FM210200 36006KT P6SM FEW080
     FM210700 VRB04KT P6SM FEW150
     FM211900 19010KT P6SM VCSH SCT060 BKN120=



000
FTUS45 KPUB 202117 AAB
TAFPUB
TAF AMD
KPUB 202117Z 2021/2118 35007KT P6SM SCT050 SCT100
     FM202200 36012G22KT P6SM VCTS SCT050CB BKN100
      TEMPO 2022/2024 VRB20G30KT P6SM BKN050CB
     FM210000 35010KT P6SM SCT060 SCT120
     FM210200 36006KT P6SM FEW070 SCT150=



000
FTUS45 KPUB 202039 AAA
TAFCOS
TAF AMD
KCOS 202039Z 2021/2118 01012G24KT P6SM VCSH SCT070 BKN080
     FM210200 34007KT P6SM FEW080 SCT150
     FM211700 15008KT P6SM SCT070 SCT200=



000
FTUS45 KPUB 201721
TAFPUB
TAF
KPUB 201721Z 2018/2118 08010KT P6SM SCT040 BKN080
     FM202000 09007KT P6SM VCTS SCT050CB BKN100
      TEMPO 2020/2023 VRB20G30KT P6SM BKN050CB
     FM202300 35012KT P6SM SCT060 SCT120
     FM210200 36006KT P6SM FEW070 SCT150=



000
FTUS45 KPUB 201721
TAFCOS
TAF
KCOS 201721Z 2018/2118 01015KT P6SM VCSH SCT040 BKN080
     FM202200 36012G22KT P6SM SCT060 SCT120
     FM210200 34007KT P6SM FEW080 SCT150
     FM211700 15008KT P6SM SCT070 SCT200=



000
FTUS45 KPUB 201721
TAFALS
TAF
KALS 201721Z 2018/2118 01008KT P6SM VCSH SCT050 BKN100
     FM202200 01012KT P6SM VCSH SCT040 BKN080
     FM210200 VRB05KT P6SM FEW050 SCT100=



    US Dept of Commerce
    National Oceanic and Atmospheric Administration
    National Weather Service
    1325 East West Highway
    Silver Spring, MD 20910
    Page Author: NWS Internet Services Team
Disclaimer
Information Quality
Credits
Glossary
Privacy Policy
Freedom of Information Act (FOIA)
About Us
Career Opportunities